Time;durP1;ratioP1;P1;durP2;ratioP2;P2;SDS_P1;SDS_P2;PMS_P1;PMS_P2;Temp;Humidity;BMP_temperature;BMP_pressure;BME280_temperature;BME280_humidity;BME280_pressure;Samples;Min_cycle;Max_cycle;Signal;HPM_P1;HPM_P2
2024/01/16 00:00:58;;;;;;;62.37;41.10;;;;;;;;;;5053498;28;20031;-57
2024/01/16 00:03:24;;;;;;;66.67;41.37;;;;;;;;;;5054643;28;20037;-57
2024/01/16 00:05:50;;;;;;;58.13;38.93;;;;;;;;;;5052441;28;20332;-57
2024/01/16 00:08:16;;;;;;;59.27;39.83;;;;;;;;;;5054838;28;20043;-55
2024/01/16 00:10:42;;;;;;;61.03;40.33;;;;;;;;;;5047783;28;20398;-56
2024/01/16 00:13:08;;;;;;;61.57;41.10;;;;;;;;;;5036112;28;20049;-56
2024/01/16 00:15:33;;;;;;;70.30;41.37;;;;;;;;;;5049576;28;20059;-56
2024/01/16 00:17:59;;;;;;;62.60;41.27;;;;;;;;;;5044168;28;20033;-57
2024/01/16 00:20:25;;;;;;;67.40;43.10;;;;;;;;;;5051185;28;20106;-54
2024/01/16 00:22:51;;;;;;;64.30;44.27;;;;;;;;;;5053736;28;20359;-57
2024/01/16 00:25:21;;;;;;;69.13;45.17;;;;;;;;;;5053603;28;20028;-56
2024/01/16 00:27:47;;;;;;;65.27;44.83;;;;;;;;;;5054193;28;20025;-56
2024/01/16 00:30:13;;;;;;;65.10;43.53;;;;;;;;;;5053494;28;20043;-54
2024/01/16 00:32:42;;;;;;;68.60;46.43;;;;;;;;;;5052762;28;20415;-56
2024/01/16 00:35:18;;;;;;;67.40;46.40;;;;;;;;;;5051840;28;20025;-57
2024/01/16 00:37:44;;;;;;;75.67;48.07;;;;;;;;;;5053278;28;20053;-57
2024/01/16 00:40:10;;;;;;;72.00;46.23;;;;;;;;;;5053135;28;20368;-58
2024/01/16 00:42:36;;;;;;;69.73;46.70;;;;;;;;;;5044047;28;20037;-58
2024/01/16 00:45:02;;;;;;;76.50;50.50;;;;;;;;;;5052084;28;20033;-56
2024/01/16 00:47:28;;;;;;;67.90;48.13;;;;;;;;;;5054252;28;20109;-55
2024/01/16 00:49:54;;;;;;;73.30;51.53;;;;;;;;;;5049644;28;20032;-56
2024/01/16 00:52:20;;;;;;;68.03;48.23;;;;;;;;;;5053664;28;20577;-57
2024/01/16 00:54:46;;;;;;;71.50;50.33;;;;;;;;;;5051235;28;20029;-58
2024/01/16 00:57:12;;;;;;;75.43;50.97;;;;;;;;;;5049368;28;20087;-58
2024/01/16 00:59:38;;;;;;;68.80;50.07;;;;;;;;;;5043429;28;20037;-58
2024/01/16 01:02:04;;;;;;;75.53;51.50;;;;;;;;;;5051997;28;20098;-57
2024/01/16 01:04:30;;;;;;;74.23;51.17;;;;;;;;;;5051266;28;20039;-58
2024/01/16 01:06:56;;;;;;;74.50;53.47;;;;;;;;;;5051728;28;20028;-58
2024/01/16 01:09:22;;;;;;;75.97;53.33;;;;;;;;;;5051359;28;20487;-57
2024/01/16 01:11:48;;;;;;;78.07;53.10;;;;;;;;;;5052085;28;20021;-59
2024/01/16 01:14:14;;;;;;;72.07;51.47;;;;;;;;;;5052350;28;20050;-57
2024/01/16 01:16:40;;;;;;;74.23;52.67;;;;;;;;;;5053733;28;20029;-57
2024/01/16 01:19:06;;;;;;;80.87;54.07;;;;;;;;;;5051376;28;20494;-57
2024/01/16 01:21:32;;;;;;;72.63;50.70;;;;;;;;;;5053877;28;20112;-57
2024/01/16 01:23:58;;;;;;;77.93;53.63;;;;;;;;;;5052095;28;20060;-57
2024/01/16 01:26:24;;;;;;;80.97;53.43;;;;;;;;;;5052727;28;20025;-57
2024/01/16 01:28:50;;;;;;;74.93;55.27;;;;;;;;;;5051919;28;20041;-58
2024/01/16 01:31:16;;;;;;;80.13;55.93;;;;;;;;;;5047267;28;20017;-57
2024/01/16 01:33:42;;;;;;;75.57;52.00;;;;;;;;;;5052556;28;20056;-58
2024/01/16 01:36:09;;;;;;;80.67;55.67;;;;;;;;;;5064963;28;20075;-58
2024/01/16 01:38:35;;;;;;;79.27;54.33;;;;;;;;;;5052938;28;20021;-56
2024/01/16 01:41:01;;;;;;;79.33;53.50;;;;;;;;;;5052103;28;20048;-58
2024/01/16 01:43:27;;;;;;;79.50;55.93;;;;;;;;;;5052951;28;20032;-58
2024/01/16 01:46:00;;;;;;;80.20;54.67;;;;;;;;;;5050042;28;20107;-56
2024/01/16 01:48:26;;;;;;;78.43;55.43;;;;;;;;;;5047353;28;20036;-56
2024/01/16 01:50:52;;;;;;;81.63;57.57;;;;;;;;;;5041127;28;20017;-57
2024/01/16 01:53:18;;;;;;;77.00;52.77;;;;;;;;;;5050585;28;20052;-57
2024/01/16 01:55:45;;;;;;;78.73;54.73;;;;;;;;;;5052717;28;20016;-58
2024/01/16 01:58:11;;;;;;;81.03;55.60;;;;;;;;;;5051865;28;20064;-58
2024/01/16 02:01:02;;;;;;;81.30;58.13;;;;;;;;;;5050295;28;20110;-58
2024/01/16 02:03:29;;;;;;;80.33;55.73;;;;;;;;;;5048130;28;20124;-58
2024/01/16 02:06:00;;;;;;;85.70;58.57;;;;;;;;;;5049957;28;20029;-58
2024/01/16 02:08:26;;;;;;;84.13;58.43;;;;;;;;;;5051604;28;20112;-58
2024/01/16 02:10:52;;;;;;;85.73;61.13;;;;;;;;;;5042397;28;20024;-58
2024/01/16 02:13:23;;;;;;;87.23;60.13;;;;;;;;;;5051571;28;20417;-59
2024/01/16 02:15:49;;;;;;;87.60;59.60;;;;;;;;;;5051364;28;20047;-57
2024/01/16 02:18:16;;;;;;;88.90;59.13;;;;;;;;;;5050932;28;20495;-58
2024/01/16 02:20:42;;;;;;;83.97;58.23;;;;;;;;;;5046592;28;20200;-57
2024/01/16 02:23:08;;;;;;;91.33;60.10;;;;;;;;;;5049230;28;20052;-57
2024/01/16 02:25:34;;;;;;;81.00;58.73;;;;;;;;;;5047970;28;20033;-57
2024/01/16 02:28:01;;;;;;;90.70;61.77;;;;;;;;;;5036371;28;20065;-57
2024/01/16 02:30:27;;;;;;;91.53;62.13;;;;;;;;;;5049885;28;20068;-55
2024/01/16 02:32:53;;;;;;;85.47;61.53;;;;;;;;;;5045250;28;20537;-56
2024/01/16 02:35:19;;;;;;;88.00;62.93;;;;;;;;;;5034956;28;20064;-56
2024/01/16 02:37:45;;;;;;;89.87;63.00;;;;;;;;;;5048908;28;20528;-57
2024/01/16 02:40:11;;;;;;;91.87;61.37;;;;;;;;;;5042597;28;20116;-58
2024/01/16 02:42:37;;;;;;;85.67;60.97;;;;;;;;;;5045769;28;20565;-57
2024/01/16 02:45:04;;;;;;;92.53;60.60;;;;;;;;;;5048641;28;20036;-58
2024/01/16 02:47:30;;;;;;;95.30;62.90;;;;;;;;;;5049380;28;20021;-59
2024/01/16 02:49:57;;;;;;;89.10;62.03;;;;;;;;;;5040218;28;20036;-57
2024/01/16 02:52:23;;;;;;;90.40;61.37;;;;;;;;;;5048084;28;20087;-57
2024/01/16 02:54:49;;;;;;;90.27;62.80;;;;;;;;;;5036207;28;20033;-56
2024/01/16 02:57:15;;;;;;;95.07;63.90;;;;;;;;;;5046144;28;20048;-56
2024/01/16 02:59:43;;;;;;;91.10;63.97;;;;;;;;;;5048998;28;20063;-57
2024/01/16 03:02:09;;;;;;;87.60;61.63;;;;;;;;;;5048163;28;20042;-56
2024/01/16 03:04:36;;;;;;;88.90;61.47;;;;;;;;;;5045450;28;20104;-59
2024/01/16 03:07:02;;;;;;;87.07;63.53;;;;;;;;;;5047866;28;20130;-59
2024/01/16 03:09:28;;;;;;;95.80;65.43;;;;;;;;;;5047950;28;20498;-57
2024/01/16 03:11:54;;;;;;;97.33;64.47;;;;;;;;;;5048678;28;20111;-58
2024/01/16 03:14:20;;;;;;;88.83;62.00;;;;;;;;;;5049332;28;20078;-58
2024/01/16 03:16:46;;;;;;;92.77;62.83;;;;;;;;;;5049252;28;20054;-57
2024/01/16 03:19:12;;;;;;;87.50;60.80;;;;;;;;;;5050100;28;20478;-59
2024/01/16 03:21:38;;;;;;;88.30;61.70;;;;;;;;;;5048182;28;20048;-58
2024/01/16 03:24:10;;;;;;;89.17;62.07;;;;;;;;;;5044516;28;20029;-58
2024/01/16 03:26:37;;;;;;;93.03;63.03;;;;;;;;;;5036021;28;20017;-57
2024/01/16 03:29:04;;;;;;;93.00;64.20;;;;;;;;;;5050062;28;20053;-58
2024/01/16 03:31:30;;;;;;;91.60;62.77;;;;;;;;;;5051935;28;20070;-58
2024/01/16 03:33:56;;;;;;;93.77;62.93;;;;;;;;;;5053279;28;20112;-58
2024/01/16 03:36:23;;;;;;;88.10;61.67;;;;;;;;;;5054343;28;20025;-57
2024/01/16 03:38:49;;;;;;;91.13;62.57;;;;;;;;;;5053848;28;20021;-57
2024/01/16 03:41:17;;;;;;;90.13;61.73;;;;;;;;;;5052899;28;20482;-58
2024/01/16 03:43:43;;;;;;;86.57;60.83;;;;;;;;;;5052829;28;20115;-58
2024/01/16 03:46:11;;;;;;;90.23;62.33;;;;;;;;;;5052946;28;20479;-57
2024/01/16 03:48:37;;;;;;;90.53;63.20;;;;;;;;;;5052463;28;20395;-58
2024/01/16 03:51:03;;;;;;;89.43;60.37;;;;;;;;;;5052877;28;20017;-57
2024/01/16 03:53:29;;;;;;;88.20;59.47;;;;;;;;;;5053249;28;20136;-56
2024/01/16 03:55:55;;;;;;;91.53;60.87;;;;;;;;;;5053256;28;20526;-58
2024/01/16 03:58:21;;;;;;;87.30;60.53;;;;;;;;;;5051367;28;20031;-57
2024/01/16 04:00:47;;;;;;;87.83;59.17;;;;;;;;;;5052441;28;20367;-58
2024/01/16 04:03:13;;;;;;;85.73;60.63;;;;;;;;;;5051953;28;20028;-57
2024/01/16 04:05:39;;;;;;;89.40;60.23;;;;;;;;;;5053261;28;20049;-57
2024/01/16 04:08:05;;;;;;;81.97;58.13;;;;;;;;;;5052280;28;20059;-55
2024/01/16 04:10:31;;;;;;;85.30;57.83;;;;;;;;;;5050512;28;20017;-57
2024/01/16 04:13:00;;;;;;;87.47;59.07;;;;;;;;;;5052853;28;20117;-57
2024/01/16 04:15:26;;;;;;;89.37;60.43;;;;;;;;;;5052637;28;20031;-57
2024/01/16 04:17:52;;;;;;;93.10;59.37;;;;;;;;;;5052763;28;20554;-56
2024/01/16 04:20:18;;;;;;;85.53;59.10;;;;;;;;;;5053012;28;20056;-58
2024/01/16 04:22:44;;;;;;;84.63;59.10;;;;;;;;;;5046516;28;20114;-57
2024/01/16 04:25:10;;;;;;;91.23;60.13;;;;;;;;;;5052535;28;20025;-58
2024/01/16 04:27:36;;;;;;;85.60;58.80;;;;;;;;;;5052359;28;20013;-57
2024/01/16 04:30:02;;;;;;;86.50;61.27;;;;;;;;;;5052073;28;20382;-58
2024/01/16 04:32:29;;;;;;;90.50;60.77;;;;;;;;;;5051980;28;20056;-55
2024/01/16 04:34:57;;;;;;;87.57;59.27;;;;;;;;;;5052324;28;20060;-58
2024/01/16 04:37:23;;;;;;;88.67;59.33;;;;;;;;;;5051518;28;20447;-58
2024/01/16 04:39:50;;;;;;;80.97;56.23;;;;;;;;;;5051686;28;20029;-58
2024/01/16 04:42:17;;;;;;;88.40;57.33;;;;;;;;;;5051445;28;20494;-57
2024/01/16 04:44:43;;;;;;;83.13;55.33;;;;;;;;;;5045978;28;20426;-57
2024/01/16 04:47:09;;;;;;;81.37;53.47;;;;;;;;;;5052237;28;20473;-58
2024/01/16 04:49:35;;;;;;;80.20;54.10;;;;;;;;;;5051105;28;20036;-58
2024/01/16 04:52:01;;;;;;;80.07;53.40;;;;;;;;;;5039399;28;20036;-57
2024/01/16 04:54:27;;;;;;;77.10;52.53;;;;;;;;;;5050463;28;20086;-57
2024/01/16 04:56:53;;;;;;;76.47;52.20;;;;;;;;;;5050888;28;20033;-56
2024/01/16 05:11:34;;;;;;;71.90;49.60;;;;;;;;;;5043446;28;20448;-58
2024/01/16 05:14:00;;;;;;;72.67;46.87;;;;;;;;;;5038050;28;20407;-57
2024/01/16 05:16:26;;;;;;;72.57;47.93;;;;;;;;;;5052037;28;20032;-58
2024/01/16 05:18:53;;;;;;;74.80;48.93;;;;;;;;;;5050998;28;20086;-56
2024/01/16 05:21:19;;;;;;;73.20;47.50;;;;;;;;;;5048452;28;20035;-56
2024/01/16 05:23:46;;;;;;;79.70;51.23;;;;;;;;;;5046259;28;20028;-58
2024/01/16 05:26:13;;;;;;;79.53;50.87;;;;;;;;;;5051186;28;20025;-59
2024/01/16 05:28:40;;;;;;;77.17;49.87;;;;;;;;;;5050234;28;20515;-58
2024/01/16 05:31:07;;;;;;;71.23;48.23;;;;;;;;;;5049551;28;20021;-58
2024/01/16 05:33:33;;;;;;;73.43;47.70;;;;;;;;;;5043419;28;20056;-57
2024/01/16 05:35:59;;;;;;;72.97;47.10;;;;;;;;;;5049496;28;20416;-57
2024/01/16 05:38:25;;;;;;;78.43;50.33;;;;;;;;;;5050200;28;20133;-58
2024/01/16 05:40:51;;;;;;;70.80;47.57;;;;;;;;;;5051044;28;20063;-57
2024/01/16 05:43:17;;;;;;;77.37;50.20;;;;;;;;;;5050072;28;20036;-57
2024/01/16 05:46:14;;;;;;;75.43;49.37;;;;;;;;;;5051130;28;20391;-56
2024/01/16 05:48:40;;;;;;;70.07;46.60;;;;;;;;;;5038454;28;20021;-57
2024/01/16 05:51:06;;;;;;;71.07;45.77;;;;;;;;;;5050107;28;20021;-57
2024/01/16 05:53:32;;;;;;;74.10;47.67;;;;;;;;;;5050286;28;20021;-58
2024/01/16 05:55:58;;;;;;;68.73;45.90;;;;;;;;;;5038271;28;20356;-57
2024/01/16 05:58:24;;;;;;;71.17;46.20;;;;;;;;;;5031415;28;20029;-58
2024/01/16 06:00:50;;;;;;;72.40;46.83;;;;;;;;;;5034139;28;20032;-57
2024/01/16 06:03:16;;;;;;;71.93;45.40;;;;;;;;;;5033323;28;20025;-57
2024/01/16 06:05:42;;;;;;;70.03;46.53;;;;;;;;;;5049718;28;20102;-57
2024/01/16 06:08:08;;;;;;;65.13;44.10;;;;;;;;;;5050837;28;20031;-55
2024/01/16 06:10:34;;;;;;;68.07;45.47;;;;;;;;;;5046105;28;20057;-57
2024/01/16 06:13:00;;;;;;;67.47;44.07;;;;;;;;;;5050607;28;20060;-56
2024/01/16 06:21:33;;;;;;;65.10;42.83;;;;;;;;;;5043511;28;20509;-57
2024/01/16 06:23:59;;;;;;;66.97;45.53;;;;;;;;;;5049096;28;20053;-57
2024/01/16 06:26:25;;;;;;;69.97;44.03;;;;;;;;;;5049219;28;20433;-55
2024/01/16 06:28:54;;;;;;;69.27;43.93;;;;;;;;;;5049138;28;20057;-56
2024/01/16 06:31:20;;;;;;;66.20;45.57;;;;;;;;;;5048482;28;20448;-56
2024/01/16 06:33:46;;;;;;;69.43;46.57;;;;;;;;;;5044957;28;20025;-57
2024/01/16 06:36:12;;;;;;;70.33;47.83;;;;;;;;;;5046063;28;20462;-58
2024/01/16 06:38:39;;;;;;;67.83;45.63;;;;;;;;;;5048757;28;20033;-58
2024/01/16 06:41:06;;;;;;;66.03;46.43;;;;;;;;;;5048266;28;20531;-57
2024/01/16 06:43:32;;;;;;;70.07;47.27;;;;;;;;;;5048366;28;20426;-57
2024/01/16 06:45:58;;;;;;;69.80;46.43;;;21.70;99.90;;;;;;5048020;28;20520;-56
2024/01/16 06:48:24;;;;;;;69.90;45.97;;;;;;;;;;5048496;28;20064;-58
2024/01/16 06:50:50;;;;;;;70.83;47.57;;;;;;;;;;5048549;28;20446;-57
2024/01/16 06:53:16;;;;;;;71.13;48.43;;;;;;;;;;5048244;28;20032;-58
2024/01/16 06:55:42;;;;;;;73.57;47.37;;;;;;;;;;5037391;28;20464;-56
2024/01/16 06:58:09;;;;;;;75.77;50.60;;;;;;;;;;5047520;28;20036;-58
2024/01/16 07:00:35;;;;;;;79.90;51.77;;;;;;;;;;5047464;28;20033;-58
2024/01/16 07:03:02;;;;;;;77.10;52.07;;;;;;;;;;5048977;28;20040;-59
2024/01/16 07:05:29;;;;;;;77.50;51.53;;;;;;;;;;5049055;28;20020;-59
2024/01/16 07:07:55;;;;;;;74.67;50.30;;;;;;;;;;5049468;28;20074;-58
2024/01/16 07:10:22;;;;;;;69.87;48.37;;;;;;;;;;5049708;28;20021;-58
2024/01/16 07:12:49;;;;;;;81.23;50.57;;;;;;;;;;5049710;28;20383;-57
2024/01/16 07:15:15;;;;;;;72.23;48.77;;;;;;;;;;5046348;28;20141;-58
2024/01/16 07:17:41;;;;;;;72.47;48.60;;;;;;;;;;5049487;28;20109;-57
2024/01/16 07:26:16;;;;;;;71.67;47.73;;;;;;;;;;5045916;28;20703;-58
2024/01/16 07:28:42;;;;;;;71.27;47.57;;;;;;;;;;5046650;28;20552;-58
2024/01/16 07:31:09;;;;;;;69.63;46.80;;;;;;;;;;5047697;28;20055;-57
2024/01/16 07:36:44;;;;;;;67.27;43.80;;;;;;;;;;5032609;28;20090;-58
2024/01/16 07:39:10;;;;;;;61.63;42.50;;;;;;;;;;5046370;28;20033;-58
2024/01/16 07:41:36;;;;;;;60.10;42.27;;;;;;;;;;5040211;28;20693;-59
2024/01/16 07:44:02;;;;;;;64.73;43.57;;;;;;;;;;5051137;28;20052;-57
2024/01/16 07:46:28;;;;;;;66.03;43.83;;;;;;;;;;5051373;28;20170;-58
2024/01/16 07:48:54;;;;;;;66.93;43.07;;;;;;;;;;5051263;28;20025;-56
2024/01/16 07:51:20;;;;;;;66.00;43.97;;;;;;;;;;5047758;28;20017;-58
2024/01/16 07:53:48;;;;;;;66.27;43.17;;;;;;;;;;5054627;28;20036;-56
2024/01/16 07:56:14;;;;;;;65.90;44.93;;;;;;;;;;5046095;28;20026;-61
2024/01/16 07:58:41;;;;;;;66.73;44.40;;;;;;;;;;5031141;28;20523;-64
2024/01/16 08:01:07;;;;;;;68.03;44.67;;;;;;;;;;5030760;28;20021;-64
2024/01/16 08:03:33;;;;;;;67.63;46.50;;;;;;;;;;5040819;28;20086;-67
2024/01/16 08:05:59;;;;;;;81.23;51.43;;;;;;;;;;5048837;28;20512;-69
2024/01/16 08:08:26;;;;;;;74.13;51.53;;;;;;;;;;5048505;28;20052;-65
2024/01/16 08:10:52;;;;;;;74.80;50.17;;;;;;;;;;5050035;28;20021;-64
2024/01/16 08:13:18;;;;;;;76.57;50.27;;;;;;;;;;5049399;28;20028;-64
2024/01/16 08:15:44;;;;;;;66.07;46.67;;;;;;;;;;5052206;28;20029;-68
2024/01/16 08:18:10;;;;;;;58.20;41.73;;;;;;;;;;5054129;28;20471;-68
2024/01/16 08:20:36;;;;;;;61.30;41.37;;;;;;;;;;5053391;28;20017;-70
2024/01/16 08:23:02;;;;;;;62.07;41.17;;;;;;;;;;5054569;28;20036;-60
2024/01/16 08:25:28;;;;;;;60.60;40.37;;;;;;;;;;5052886;28;20052;-57
2024/01/16 08:27:54;;;;;;;63.63;40.53;;;;;;;;;;5052551;28;20060;-56
2024/01/16 08:30:20;;;;;;;57.30;39.17;;;;;;;;;;5051495;28;20079;-64
2024/01/16 08:32:46;;;;;;;55.07;38.73;;;;;;;;;;5052173;28;20036;-52
2024/01/16 08:35:12;;;;;;;54.70;38.40;;;;;;;;;;5052076;28;20579;-56
2024/01/16 08:37:38;;;;;;;53.37;38.60;;;;;;;;;;5052113;28;20028;-57
2024/01/16 08:40:04;;;;;;;53.37;37.50;;;;;;;;;;5040408;28;20030;-59
2024/01/16 08:42:31;;;;;;;58.67;39.40;;;;;;;;;;5032309;28;20120;-52
2024/01/16 08:44:57;;;;;;;59.00;38.20;;;;;;;;;;5030720;28;20029;-67
2024/01/16 08:47:22;;;;;;;54.83;37.30;;;;;;;;;;5031964;28;20541;-65
2024/01/16 08:49:49;;;;;;;60.97;40.07;;;;;;;;;;5032425;28;20034;-68
2024/01/16 08:52:15;;;;;;;55.20;39.33;;;;;;;;;;5031725;28;20026;-65
2024/01/16 08:54:41;;;;;;;56.50;38.30;;;;;;;;;;5032930;28;20044;-68
2024/01/16 08:57:10;;;;;;;65.17;41.10;;;;;;;;;;5036992;28;20052;-65
2024/01/16 08:59:36;;;;;;;58.47;39.80;;;;;;;;;;5040278;28;20042;-67
2024/01/16 09:02:03;;;;;;;66.27;39.93;;;;;;;;;;5031762;28;20041;-67
2024/01/16 09:04:29;;;;;;;56.93;40.17;;;;;;;;;;5037185;28;20501;-60
2024/01/16 09:06:55;;;;;;;62.63;40.77;;;;;;;;;;5052201;28;20068;-62
2024/01/16 09:09:21;;;;;;;57.53;38.37;;;;;;;;;;5051808;28;20028;-60
2024/01/16 09:11:47;;;;;;;58.40;38.20;;;;;;;;;;5050249;28;20033;-61
2024/01/16 09:14:13;;;;;;;57.60;37.33;;;;;;;;;;5052406;28;20047;-60
2024/01/16 09:16:40;;;;;;;58.03;38.23;;;;;;;;;;5051613;28;20124;-64
2024/01/16 09:19:06;;;;;;;54.87;37.67;;;;;;;;;;5050739;28;20087;-62
2024/01/16 09:21:32;;;;;;;53.90;36.27;;;;;;;;;;5049423;28;20040;-62
2024/01/16 09:23:58;;;;;;;57.17;35.83;;;;;;;;;;5045373;28;20029;-61
2024/01/16 09:26:24;;;;;;;50.60;35.27;;;;;;;;;;5049994;28;20036;-60
2024/01/16 09:28:50;;;;;;;53.37;34.73;;;;;;;;;;5050797;28;20060;-59
2024/01/16 09:31:16;;;;;;;48.07;33.70;;;;;;;;;;5051478;28;20386;-56
2024/01/16 09:33:43;;;;;;;51.17;34.80;;;;;;;;;;5051111;28;20511;-60
2024/01/16 09:36:09;;;;;;;50.87;33.50;;;;;;;;;;5033342;28;20028;-66
2024/01/16 09:38:35;;;;;;;52.37;35.37;;;;;;;;;;5051087;28;20714;-60
2024/01/16 09:41:02;;;;;;;53.27;34.73;;;;;;;;;;5032582;28;20038;-61
2024/01/16 09:43:29;;;;;;;54.07;36.63;;;;;;;;;;5050853;28;20052;-62
2024/01/16 09:45:56;;;;;;;49.23;34.37;;;;;;;;;;5050940;28;20772;-68
2024/01/16 09:48:23;;;;;;;47.73;33.97;;;;;;;;;;5050909;28;20025;-59
2024/01/16 09:50:49;;;;;;;52.40;34.57;;;;;;;;;;5050497;28;20390;-67
2024/01/16 09:53:15;;;;;;;50.90;34.73;;;;;;;;;;5051078;28;20033;-65
2024/01/16 09:55:41;;;;;;;53.97;36.73;;;;;;;;;;5051484;28;20040;-66
2024/01/16 09:58:12;;;;;;;50.53;34.83;;;;;;;;;;5051075;28;20064;-62
2024/01/16 10:00:38;;;;;;;55.60;35.83;;;;;;;;;;5048885;28;20040;-52
2024/01/16 10:03:05;;;;;;;55.70;37.20;;;;;;;;;;5050393;28;20095;-56
2024/01/16 10:05:31;;;;;;;54.30;34.13;;;;;;;;;;5051034;28;20068;-66
2024/01/16 10:07:57;;;;;;;54.97;37.53;;;;;;;;;;5051238;28;20102;-67
2024/01/16 10:10:28;;;;;;;55.23;36.83;;;;;;;;;;5050240;28;20102;-65
2024/01/16 10:12:54;;;;;;;49.00;34.47;;;;;;;;;;5050455;28;20040;-67
2024/01/16 10:15:20;;;;;;;55.97;36.03;;;;;;;;;;5051201;28;20107;-69
2024/01/16 10:17:46;;;;;;;55.83;36.30;;;;;;;;;;5049705;28;20036;-65
2024/01/16 10:20:17;;;;;;;53.43;35.57;;;;;;;;;;5048501;28;20044;-61
2024/01/16 10:22:54;;;;;;;54.97;36.83;;;;;;;;;;5049826;28;20088;-61
2024/01/16 10:25:22;;;;;;;54.27;37.17;;;;;;;;;;5050671;28;20479;-63
2024/01/16 10:27:48;;;;;;;56.57;37.97;;;;;;;;;;5049908;28;20029;-65
2024/01/16 10:30:14;;;;;;;59.17;36.90;;;;;;;;;;5049951;28;20044;-67
2024/01/16 10:32:41;;;;;;;52.73;36.60;;;;;;;;;;5049856;28;20028;-66
2024/01/16 10:35:10;;;;;;;55.67;37.00;;;;;;;;;;5050078;28;20024;-65
2024/01/16 10:37:48;;;;;;;52.50;35.63;;;;;;;;;;5049664;28;20133;-67
2024/01/16 10:40:15;;;;;;;54.00;36.10;;;;;;;;;;5049771;28;20110;-65
2024/01/16 10:42:41;;;;;;;57.03;36.70;;;;;;;;;;5034031;28;20041;-74
2024/01/16 10:45:07;;;;;;;53.33;36.13;;;;;;;;;;5031709;28;20113;-72
2024/01/16 10:47:36;;;;;;;51.77;34.43;;;;;;;;;;5032319;28;20049;-67
2024/01/16 10:50:05;;;;;;;49.60;33.13;;;;;;;;;;5043625;28;20021;-68
2024/01/16 10:52:34;;;;;;;48.23;32.60;;;;;;;;;;5051914;28;20044;-66
2024/01/16 10:55:04;;;;;;;53.23;35.63;;;;;;;;;;5051883;28;20036;-68
2024/01/16 10:57:32;;;;;;;44.50;31.37;;;;;;;;;;5052149;28;20022;-72
2024/01/16 11:00:06;;;;;;;46.03;31.70;;;;;;;;;;5052181;28;20378;-67
2024/01/16 11:02:38;;;;;;;49.00;32.65;;;;;;;;;;5051814;28;20041;-55
2024/01/16 11:05:05;;;;;;;49.73;32.93;;;;;;;;;;5052248;28;20098;-60
2024/01/16 11:07:32;;;;;;;45.23;31.80;;;;;;;;;;5051909;28;20017;-64
2024/01/16 11:10:04;;;;;;;46.17;32.63;;;;;;;;;;5051882;28;20028;-66
2024/01/16 11:12:31;;;;;;;47.33;31.73;;;;;;;;;;5051688;28;20025;-64
2024/01/16 11:15:07;;;;;;;46.47;32.17;;;;;;;;;;5051849;28;20029;-61
2024/01/16 11:17:34;;;;;;;45.93;32.00;;;;;;;;;;5054170;28;20021;-71
2024/01/16 11:20:00;;;;;;;42.37;30.77;;;;;;;;;;5050992;28;20106;-70
2024/01/16 11:22:28;;;;;;;47.10;31.60;;;;;;;;;;5052253;28;20040;-71
2024/01/16 11:25:16;;;;;;;49.47;31.23;;;;;;;;;;5051441;28;20059;-62
2024/01/16 11:27:43;;;;;;;45.57;31.20;;;;;;;;;;5051384;28;20028;-60
2024/01/16 11:30:13;;;;;;;39.63;29.97;;;;;;;;;;5051861;28;20021;-63
2024/01/16 11:32:44;;;;;;;41.83;30.87;;;;;;;;;;5050841;28;20108;-64
2024/01/16 11:35:13;;;;;;;46.03;32.03;;;;;;;;;;5051995;28;20603;-63
2024/01/16 11:37:42;;;;;;;55.47;34.37;;;;;;;;;;5051473;28;20081;-60
2024/01/16 11:40:21;;;;;;;51.80;32.87;;;;;;;;;;5052165;28;20026;-65
2024/01/16 11:42:53;;;;;;;56.43;34.57;;;;;;;;;;5041198;28;20387;-70
2024/01/16 11:45:29;;;;;;;50.50;33.13;;;;;;;;;;5053537;28;20029;-65
2024/01/16 11:48:13;;;;;;;47.63;33.57;;;;;;;;;;5047800;28;20027;-64
2024/01/16 11:50:40;;;;;;;51.80;34.47;;;;;;;;;;5053760;28;20021;-59
2024/01/16 11:53:36;;;;;;;49.80;33.97;;;;;;;;;;5055110;28;20021;-58
2024/01/16 11:56:02;;;;;;;52.77;33.77;;;;;;;;;;5054276;28;20052;-58
2024/01/16 11:58:47;;;;;;;47.83;32.17;;;;;;;;;;5055452;28;20064;-58
2024/01/16 12:01:13;;;;;;;41.03;30.98;;;;;;;;;;5055478;28;20028;-59
2024/01/16 12:03:39;;;;;;;49.30;32.30;;;;;;;;;;5055315;28;20112;-56
2024/01/16 12:06:06;;;;;;;48.10;33.27;;;;;;;;;;5055300;28;20120;-58
2024/01/16 12:08:33;;;;;;;52.47;35.83;;;;;;;;;;5055357;28;20320;-59
2024/01/16 12:11:01;;;;;;;49.67;34.93;;;;;;;;;;5055273;28;20471;-56
2024/01/16 12:13:27;;;;;;;50.17;33.53;;;;;;;;;;5055344;28;20371;-59
2024/01/16 12:16:00;;;;;;;49.50;34.25;;;;;;;;;;5055236;28;20112;-58
2024/01/16 12:18:26;;;;;;;50.40;33.63;;;;;;;;;;5055392;28;20021;-59
2024/01/16 12:20:52;;;;;;;55.57;35.03;;;;;;;;;;5054934;28;20013;-57
2024/01/16 12:23:20;;;;;;;49.37;35.33;;;;;;;;;;5055062;28;20098;-58
2024/01/16 12:25:46;;;;;;;48.93;34.03;;;;;;;;;;5054974;28;20045;-58
2024/01/16 12:28:20;;;;;;;48.70;34.17;;;;;;;;;;5054732;28;20089;-57
2024/01/16 12:30:50;;;;;;;43.92;32.47;;;;;;;;;;5054860;28;20118;-58
2024/01/16 12:33:16;;;;;;;46.43;32.10;;;;;;;;;;5053478;28;20490;-57
2024/01/16 12:35:46;;;;;;;39.20;26.70;;;;;;;;;;5054725;28;20320;-57
2024/01/16 12:38:13;;;;;;;42.73;28.70;;;;;;;;;;5055105;28;20029;-55
2024/01/16 12:40:49;;;;;;;44.27;29.97;;;;;;;;;;5040633;28;20077;-57
2024/01/16 12:43:16;;;;;;;43.23;30.27;;;;;;;;;;5033752;28;20042;-58
2024/01/16 12:45:44;;;;;;;45.87;31.90;;;;;;;;;;5033959;28;20026;-58
2024/01/16 12:48:10;;;;;;;48.37;34.23;;;;;;;;;;5032528;28;20037;-57
2024/01/16 12:50:37;;;;;;;49.60;32.83;;;;;;;;;;5034170;28;20018;-58
2024/01/16 12:53:03;;;;;;;47.37;33.77;;;;;;;;;;5034510;28;20022;-58
2024/01/16 12:55:29;;;;;;;41.03;29.67;;;;;;;;;;5033520;28;20033;-57
2024/01/16 12:58:14;;;;;;;45.27;29.17;;;;;;;;;;5034799;28;20056;-57
2024/01/16 13:00:40;;;;;;;46.15;31.73;;;;;;;;;;5034075;28;20043;-58
2024/01/16 13:03:06;;;;;;;47.23;33.97;;;;;;;;;;5034505;28;20033;-57
2024/01/16 13:05:38;;;;;;;48.15;32.13;;;;;;;;;;5034580;28;20123;-56
2024/01/16 13:08:04;;;;;;;44.87;31.17;;;;;;;;;;5034620;28;20150;-55
2024/01/16 13:10:30;;;;;;;33.07;25.13;;;;;;;;;;5034480;28;20026;-57
2024/01/16 13:13:13;;;;;;;43.10;29.37;;;;;;;;;;5034039;28;20034;-56
2024/01/16 13:15:43;;;;;;;41.20;29.75;;;;;;;;;;5034026;28;20124;-57
2024/01/16 13:18:24;;;;;;;42.43;31.30;;;;;;;;;;5034073;28;20034;-57
2024/01/16 13:20:57;;;;;;;47.67;32.88;;;;;;;;;;5034202;28;20056;-58
2024/01/16 13:23:27;;;;;;;47.90;33.15;;;;;;;;;;5033886;28;20104;-58
2024/01/16 13:25:55;;;;;;;44.75;30.88;;;;;;;;;;5034416;28;20025;-56
2024/01/16 13:28:21;;;;;;;43.22;31.42;;;;;;;;;;5032998;28;20053;-58
2024/01/16 13:30:48;;;;;;;44.75;31.00;;;;;;;;;;5032301;28;20029;-58
2024/01/16 13:33:14;;;;;;;49.20;34.00;;;;;;;;;;5046904;28;20189;-62
2024/01/16 13:35:41;;;;;;;46.55;32.72;;;;;;;;;;5051662;28;20021;-61
2024/01/16 13:38:08;;;;;;;48.40;32.37;;;;;;;;;;5043343;28;20136;-62
2024/01/16 13:40:40;;;;;;;44.55;32.50;;;;;;;;;;5050598;28;20087;-62
2024/01/16 13:43:06;;;;;;;46.30;32.40;;;;;;;;;;5051586;28;20039;-61
2024/01/16 13:45:33;;;;;;;45.77;32.67;;;;;;;;;;5049726;28;20032;-61
2024/01/16 13:48:01;;;;;;;46.28;33.33;;;;;;;;;;5051738;28;20100;-61
2024/01/16 13:50:27;;;;;;;50.10;34.97;;;;;;;;;;5039620;28;20021;-61
2024/01/16 13:52:54;;;;;;;47.43;33.07;;;;;;;;;;5042811;28;20405;-64
2024/01/16 13:55:20;;;;;;;48.78;33.63;;;;;;;;;;5039776;28;20036;-62
2024/01/16 13:57:46;;;;;;;49.83;36.00;;;;;;;;;;5037453;28;20038;-62
2024/01/16 14:00:15;;;;;;;48.70;34.38;;;;;;;;;;5049231;28;20029;-62
2024/01/16 14:02:41;;;;;;;46.80;33.22;;;;;;;;;;5052992;28;20028;-61
2024/01/16 14:05:10;;;;;;;50.20;33.85;;;;;;;;;;5046011;28;20543;-67
2024/01/16 14:10:40;;;;;;;49.35;35.45;;;;;;;;;;5038458;28;20468;-65
2024/01/16 14:13:06;;;;;;;55.00;37.05;;;;;;;;;;5034763;28;20060;-61
2024/01/16 14:15:32;;;;;;;54.25;37.47;;;;;;;;;;5049787;28;20063;-64
2024/01/16 14:17:59;;;;;;;53.22;39.03;;;;;;;;;;5048069;28;20025;-74
2024/01/16 14:20:26;;;;;;;55.72;39.28;;;;;;;;;;5041148;28;20029;-61
2024/01/16 14:22:54;;;;;;;57.42;39.90;;;;;;;;;;5050504;28;20116;-61
2024/01/16 14:25:20;;;;;;;57.28;40.33;;;;;;;;;;5050943;28;20060;-67
2024/01/16 14:27:49;;;;;;;54.35;38.40;;;;;;;;;;5049712;28;20066;-69
2024/01/16 14:30:18;;;;;;;52.60;36.60;;;;;;;;;;5049160;28;20025;-61
2024/01/16 14:32:45;;;;;;;51.93;37.03;;;;;;;;;;5049394;28;20029;-66
2024/01/16 14:35:12;;;;;;;54.80;35.70;;;;;;;;;;5050185;28;20029;-70
2024/01/16 14:37:39;;;;;;;46.27;32.97;;;;;;;;;;5049276;28;20064;-68
2024/01/16 14:40:12;;;;;;;48.20;31.47;;;;;;;;;;5051185;28;20522;-69
2024/01/16 14:42:42;;;;;;;45.70;32.87;;;;;;;;;;5049924;28;20041;-63
2024/01/16 14:45:08;;;;;;;44.65;32.15;;;;;;;;;;5047350;28;20029;-68
2024/01/16 14:47:35;;;;;;;42.63;31.47;;;;;;;;;;5050170;28;20246;-66